Spruce Head, ME (04859)

2:09 PM EDT on May 26, 2017 (GMT -0400)
Saint George River GRN13 | | Change Station

Elev 49 ft 44.04 °N, 69.19 °W | Updated 50 seconds ago

Overcast
Overcast
50.3 °F
Feels Like 50.3 °F
N
7.0
Wind Variable Wind from NNE
Gusts 7.0 mph

Today
High -- | Low -- °F
--% Chance of Precip.
Yesterday
High -- | Low -- °F
Precip. -- in
Pressure 29.52 in
Visibility 3.0 miles
Clouds Overcast 400 ft
Dew Point 48 °F
Humidity 91%
Rainfall 1.38 in
Snow Depth Not available.
5:00 AM 8:07 PM
New Moon, 1% visible
METAR KRKD 261756Z AUTO 03009G15KT 3SM BR OVC004 10/09 A2951 RMK AO2 RAB1659E46 SLP996 P0000 60028 T01000094 10100 20083 55002
Pressure 29.52 in
Visibility 3.0 miles
Clouds Overcast 400 ft
Dew Point 48 °F
Humidity 91%
Rainfall 1.38 in
Snow Depth Not available.
5:00 AM 8:07 PM
New Moon, 1% visible
METAR KRKD 261756Z AUTO 03009G15KT 3SM BR OVC004 10/09 A2951 RMK AO2 RAB1659E46 SLP996 P0000 60028 T01000094 10100 20083 55002

Get Severe Weather Alerts

Thanks for signing up!

Be on the lookout for a verification email in your inbox.

You'll start receiving the daily forecast at 6 AM.

×

10-Day Weather Forecast

Almanac

Astronomy

May. 26, 2017 Rise Set
Actual Time
Civil Twilight
Nautical Twilight
Astronomical Twilight
Moon
Length of Visible Light
Length of Day
Tomorrow will be .
, % of the Moon is Illuminated

Today's Extremes

State Highs State Lows

Community

WunderPhotos

Category 6

Welcome to Category 6. This is the collective home for Weather Underground's featured writeups by Dr. Jeff Masters (right), Bob Henson (left), Chris Burt, and other regular contributors.

Nearby

Air Quality

  Air Quality AQ Index Pollutant
Not available.

Snow Depth

Station Depth Elevation

Earthquake Activity

City Distance Mag. Time & Date
Minimum magnitude displayed is 2.5.

Coastal Water Temperatures

Place Temperature

Stations

Nearby Weather Stations

Station Location Temp. Windchill Dew Point Humidity Wind Precip. Elev Updated Type
                   

Watches & Warnings

There are currently no watches in effect.